ADDS TAF Board (Experimental) INFO Settings
IDs: Format: Expanded Condensed

KCLE - Cleveland/Hopkins In, OH, US

Issued at 1546 UTC 08 Feb 2016
Updated at: 1658 UTC 08 Feb 2016
Time1651Z 08/17Z 08/18Z 08/19Z 08/20Z 08/21Z 08/22Z 08/23Z 09/00Z 09/01Z 09/02Z 09/03Z 09/04Z 09/05Z
Type OBS PRVL
  [TEMP]  
PRVL
  [TEMP]  
PRVL
  [TEMP]  
PRVL PRVL PRVL PRVL PRVL PRVL PRVL PRVL PRVL PRVL
VIS 0.5 2
  [0.5]  
2
  [0.5]  
2
  [0.5]  
3 3 3 3 5 5 5 5 5 5
CIG 5 8
  [3]  
8
  [3]  
8
  [3]  
12 12 12 12 12 12 12 12 12 12
Cover OVC OVC
  [OVC]  
OVC
  [OVC]  
OVC
  [OVC]  
OVC OVC OVC OVC OVC OVC OVC OVC OVC OVC
FltCat LIFR IFR
  [LIFR]  
IFR
  [LIFR]  
IFR
  [LIFR]  
MVFR MVFR MVFR MVFR MVFR MVFR MVFR MVFR MVFR MVFR
WX SN FG -SN BR
  [SN FZFG]  
-SN BR
  [SN FZFG]  
-SN BR
  [SN FZFG]  
-SN BR -SN BR -SN BR -SN BR BR BR BR BR BR BR
WDir 230 260
[260]
260
[260]
260
[260]
280 280 280 280 260 260 260 260 260 260
WSpd 3 8
  [8]  
8
  [8]  
8
  [8]  
8 8 8 8 5 5 5 5 5 5
WGst -- --
  [--]  
--
  [--]  
--
  [--]  
-- -- -- -- -- -- -- -- -- --
R06/24
XWnd -0 4 4 4 6 6 6 6 3 3 3 3 3 3
XGst -- 0 0 0 -- -- -- -- -- -- -- -- -- --
HWnd -3 -7 -7 -7 -5 -5 -5 -5 -4 -4 -4 -4 -4 -4
HGst -- 0 0 0 -- -- -- -- -- -- -- -- -- --
R10/28
XWnd -2 -2 -2 -2 1 1 1 1 -1 -1 -1 -1 -1 -1
XGst -- 0 0 0 -- -- -- -- -- -- -- -- -- --
HWnd -2 -8 -8 -8 -8 -8 -8 -8 -5 -5 -5 -5 -5 -5
HGst -- 0 0 0 -- -- -- -- -- -- -- -- -- --

NOTE: TEMPO conditions in [brackets]. Keep in mind TEMPO conditions might be better (lower impact) than prevailing conditions.

Raw TAF
KCLE 081546Z 0816/0918 26008KT 2SM -SN BR OVC008
  TEMPO 0816/0820 1/2SM SN FZFG OVC003
  FM082000 28008KT 3SM -SN BR SCT006 OVC012
  FM090000 26005KT 5SM BR OVC012


Raw METAR
KCLE 081651Z 23003KT 1/2SM SN FG OVC005 01/M01 A2962 RMK AO2 SLP034 SNINCR 1/1 P0008 T00061006
KCLE 081551Z 00000KT 1/2SM SN FG SCT004 OVC008 01/M01 A2963 RMK AO2 RAE25SNB12 SLP039 P0010 T00061006
KCLE 081539Z 00000KT 3/4SM -SN BR SCT004 OVC011 01/M01 A2963 RMK AO2 RAE25SNB12 P0008 T00061006
KCLE 081523Z 17005KT 1 3/4SM -RASN BR OVC008 02/00 A2963 RMK AO2 SNB12 P0004 T00170000
KCLE 081451Z 17007KT 4SM -RA BR BKN008 BKN014 OVC020 03/01 A2964 RMK AO2 SLP039 P0005 60008 T00280006 56008
KCLE 081358Z 20005KT 6SM -RA BR BKN011 OVC018 03/01 A2964 RMK AO2 P0001 T00280011
KCLE 081351Z 19004KT 5SM -RA BR OVC015 03/01 A2964 RMK AO2 SLP042 P0002 T00330011

METAR Board
Radar Display
Forecast Discussion

TAF Board Legend

Potential Impact
Threat None Slight Moderate High
Visibility (sm) ≥5.1 5.1>X≥3 3>X≥1 <1
Ceiling (100 ft) ≥30.1 30.1>X≥10 10>X≥5 <5
Wind Speed (kt) <10 10≤X<20 20≤X<30 ≥30
Wind Gust (kt) <15 15≤X<25 25≤X<35 ≥35
Weather No Wx Reported VCTS,-TS,-FZRA,SN TS,FZRA +TS,+FZRA,+SN